Time,TemperatureF,DewpointF,PressureIn,WindDirection,WindDirectionDegrees,WindSpeedMPH,WindSpeedGustMPH,Humidity,HourlyPrecipIn,Conditions,Clouds,dailyrainin,SoftwareType,DateUTC
2013-05-05 00:01:00,39.0,35.2,30.34,NE,46,0.0,0.0,86,0.00,,,0.00,meteohub,2013-05-05 04:01:00,
2013-05-05 00:06:00,38.8,35.1,30.34,NE,46,0.0,0.0,86,0.00,,,0.00,meteohub,2013-05-05 04:06:00,
2013-05-05 00:11:00,38.7,35.1,30.34,NE,46,0.0,0.0,87,0.00,,,0.00,meteohub,2013-05-05 04:11:00,
2013-05-05 00:16:00,38.7,35.1,30.34,NE,46,0.0,0.0,87,0.00,,,0.00,meteohub,2013-05-05 04:16:00,
2013-05-05 00:21:00,38.5,34.9,30.34,NE,46,0.0,0.0,87,0.00,,,0.00,meteohub,2013-05-05 04:21:00,
2013-05-05 00:26:00,38.3,34.7,30.35,NE,46,0.0,0.0,87,0.00,,,0.00,meteohub,2013-05-05 04:26:00,
2013-05-05 00:31:00,38.1,34.5,30.35,NE,46,0.0,0.0,87,0.00,,,0.00,meteohub,2013-05-05 04:31:00,
2013-05-05 00:36:00,37.9,34.7,30.35,NE,46,0.0,0.0,88,0.00,,,0.00,meteohub,2013-05-05 04:36:00,
2013-05-05 00:41:00,37.9,34.7,30.35,NE,46,0.0,0.0,88,0.00,,,0.00,meteohub,2013-05-05 04:41:00,
2013-05-05 00:46:00,37.8,34.5,30.35,NE,46,0.0,0.0,88,0.00,,,0.00,meteohub,2013-05-05 04:46:00,
2013-05-05 00:51:00,37.6,34.3,30.35,NE,46,0.0,0.0,88,0.00,,,0.00,meteohub,2013-05-05 04:51:00,
2013-05-05 00:56:00,37.6,34.3,30.34,NE,46,0.0,0.0,88,0.00,,,0.00,meteohub,2013-05-05 04:56:00,
2013-05-05 01:01:00,37.2,34.0,30.34,NE,46,0.0,0.0,88,0.00,,,0.00,meteohub,2013-05-05 05:01:00,
2013-05-05 01:06:00,37.2,34.3,30.34,NE,46,0.0,0.0,89,0.00,,,0.00,meteohub,2013-05-05 05:06:00,
2013-05-05 01:11:00,37.2,34.3,30.34,NE,46,0.0,0.0,89,0.00,,,0.00,meteohub,2013-05-05 05:11:00,
2013-05-05 01:16:00,37.0,34.2,30.34,NE,46,0.0,0.0,89,0.00,,,0.00,meteohub,2013-05-05 05:16:00,
2013-05-05 01:22:00,37.0,34.3,30.34,NE,46,0.0,0.0,90,0.00,,,0.00,meteohub,2013-05-05 05:22:00,
2013-05-05 01:27:00,36.9,34.2,30.34,NE,46,0.0,0.0,90,0.00,,,0.00,meteohub,2013-05-05 05:27:00,
2013-05-05 01:32:00,36.9,34.2,30.34,NE,46,0.0,0.0,90,0.00,,,0.00,meteohub,2013-05-05 05:32:00,
2013-05-05 01:37:00,36.9,34.2,30.34,NE,46,0.0,0.0,90,0.00,,,0.00,meteohub,2013-05-05 05:37:00,
2013-05-05 01:42:00,36.7,34.0,30.34,NE,46,0.0,0.0,90,0.00,,,0.00,meteohub,2013-05-05 05:42:00,
2013-05-05 01:47:00,36.5,33.8,30.33,NE,46,0.0,0.0,90,0.00,,,0.00,meteohub,2013-05-05 05:47:00,
2013-05-05 01:52:00,36.3,33.6,30.33,NE,46,0.0,0.0,90,0.00,,,0.00,meteohub,2013-05-05 05:52:00,
2013-05-05 01:57:00,36.3,33.6,30.33,NE,46,0.0,0.0,90,0.00,,,0.00,meteohub,2013-05-05 05:57:00,
2013-05-05 02:02:00,36.1,33.4,30.33,NE,46,0.0,0.0,90,0.00,,,0.00,meteohub,2013-05-05 06:02:00,
2013-05-05 02:07:00,36.1,33.4,30.33,NE,46,0.0,0.0,90,0.00,,,0.00,meteohub,2013-05-05 06:07:00,
2013-05-05 02:12:00,36.0,33.3,30.33,NE,46,0.0,0.0,90,0.00,,,0.00,meteohub,2013-05-05 06:12:00,
2013-05-05 02:17:00,36.0,33.6,30.33,NE,46,0.0,0.0,91,0.00,,,0.00,meteohub,2013-05-05 06:17:00,
2013-05-05 02:22:00,35.8,33.4,30.33,NE,46,0.0,0.0,91,0.00,,,0.00,meteohub,2013-05-05 06:22:00,
2013-05-05 02:27:00,35.8,33.4,30.33,NE,46,0.0,0.0,91,0.00,,,0.00,meteohub,2013-05-05 06:27:00,
2013-05-05 02:32:00,35.8,33.6,30.33,NE,46,0.0,0.0,92,0.00,,,0.00,meteohub,2013-05-05 06:32:00,
2013-05-05 02:37:00,35.8,33.6,30.33,NE,46,0.0,0.0,92,0.00,,,0.00,meteohub,2013-05-05 06:37:00,
2013-05-05 02:42:00,35.8,33.6,30.33,NE,46,0.0,0.0,92,0.00,,,0.00,meteohub,2013-05-05 06:42:00,
2013-05-05 02:47:00,36.0,34.2,30.33,NE,46,0.0,0.0,93,0.00,,,0.00,meteohub,2013-05-05 06:47:00,
2013-05-05 02:52:00,36.0,34.2,30.32,NE,46,0.0,0.0,93,0.00,,,0.00,meteohub,2013-05-05 06:52:00,
2013-05-05 02:57:00,36.0,34.2,30.32,NE,46,0.0,0.0,93,0.00,,,0.00,meteohub,2013-05-05 06:57:00,
2013-05-05 03:02:00,36.1,34.3,30.32,NE,46,0.0,0.0,93,0.00,,,0.00,meteohub,2013-05-05 07:02:00,
2013-05-05 03:07:00,36.1,34.3,30.33,NE,46,0.0,1.0,93,0.00,,,0.00,meteohub,2013-05-05 07:07:00,
2013-05-05 03:12:00,36.1,34.5,30.32,NE,46,0.0,1.0,94,0.00,,,0.00,meteohub,2013-05-05 07:12:00,
2013-05-05 03:17:00,36.3,34.5,30.33,NE,46,0.0,1.0,93,0.00,,,0.00,meteohub,2013-05-05 07:17:00,
2013-05-05 03:22:00,36.3,34.5,30.32,NE,46,0.0,0.0,93,0.00,,,0.00,meteohub,2013-05-05 07:22:00,
2013-05-05 03:27:00,36.5,34.7,30.32,NE,46,0.0,2.0,93,0.00,,,0.00,meteohub,2013-05-05 07:27:00,
2013-05-05 03:32:00,36.5,34.7,30.32,NE,45,0.0,2.0,93,0.00,,,0.00,meteohub,2013-05-05 07:32:00,
2013-05-05 03:37:00,36.5,34.7,30.32,NE,45,1.0,3.0,93,0.00,,,0.00,meteohub,2013-05-05 07:37:00,
2013-05-05 03:42:00,36.7,35.1,30.32,NE,45,0.0,3.0,94,0.00,,,0.00,meteohub,2013-05-05 07:42:00,
2013-05-05 03:47:00,36.7,35.1,30.32,NE,45,0.0,2.0,94,0.00,,,0.00,meteohub,2013-05-05 07:47:00,
2013-05-05 03:52:00,36.7,34.9,30.32,NE,45,0.0,2.0,93,0.00,,,0.00,meteohub,2013-05-05 07:52:00,
2013-05-05 03:57:00,36.7,34.9,30.32,NE,45,0.0,2.0,93,0.00,,,0.00,meteohub,2013-05-05 07:57:00,
2013-05-05 04:02:00,36.5,34.7,30.32,NE,46,0.0,2.0,93,0.00,,,0.00,meteohub,2013-05-05 08:02:00,
2013-05-05 04:07:00,36.5,34.7,30.32,NE,46,0.0,1.0,93,0.00,,,0.00,meteohub,2013-05-05 08:07:00,
2013-05-05 04:12:00,36.3,34.5,30.32,NE,46,0.0,0.0,93,0.00,,,0.00,meteohub,2013-05-05 08:12:00,
2013-05-05 04:17:00,36.3,34.5,30.32,NE,46,0.0,0.0,93,0.00,,,0.00,meteohub,2013-05-05 08:17:00,
2013-05-05 04:22:00,36.3,34.5,30.32,NE,45,0.0,0.0,93,0.00,,,0.00,meteohub,2013-05-05 08:22:00,
2013-05-05 04:27:00,36.1,34.3,30.32,NE,46,0.0,0.0,93,0.00,,,0.00,meteohub,2013-05-05 08:27:00,
2013-05-05 04:32:00,36.1,34.3,30.32,NE,46,0.0,0.0,93,0.00,,,0.00,meteohub,2013-05-05 08:32:00,
2013-05-05 04:37:00,36.0,34.3,30.32,NE,46,0.0,0.0,94,0.00,,,0.00,meteohub,2013-05-05 08:37:00,
2013-05-05 04:42:00,36.0,34.3,30.32,NE,45,0.0,0.0,94,0.00,,,0.00,meteohub,2013-05-05 08:42:00,
2013-05-05 04:47:00,36.0,34.3,30.32,NE,46,0.0,0.0,94,0.00,,,0.00,meteohub,2013-05-05 08:47:00,
2013-05-05 04:52:00,36.0,34.3,30.32,NE,45,0.0,0.0,94,0.00,,,0.00,meteohub,2013-05-05 08:52:00,
2013-05-05 04:57:00,36.0,34.2,30.32,NE,46,0.0,0.0,93,0.00,,,0.00,meteohub,2013-05-05 08:57:00,
2013-05-05 05:02:00,35.8,34.2,30.32,NE,46,0.0,0.0,94,0.00,,,0.00,meteohub,2013-05-05 09:02:00,
2013-05-05 05:07:00,35.8,34.2,30.32,NE,45,0.0,0.0,94,0.00,,,0.00,meteohub,2013-05-05 09:07:00,
2013-05-05 05:12:00,35.8,34.2,30.32,NE,45,0.0,0.0,94,0.00,,,0.00,meteohub,2013-05-05 09:12:00,
2013-05-05 05:17:00,35.8,34.2,30.32,NE,45,0.0,0.0,94,0.00,,,0.00,meteohub,2013-05-05 09:17:00,
2013-05-05 05:22:00,35.8,34.2,30.32,NE,45,0.0,0.0,94,0.00,,,0.00,meteohub,2013-05-05 09:22:00,
2013-05-05 05:27:00,35.8,34.2,30.32,NE,45,0.0,0.0,94,0.00,,,0.00,meteohub,2013-05-05 09:27:00,
2013-05-05 05:32:00,36.0,34.7,30.32,NE,45,0.0,1.0,95,0.00,,,0.00,meteohub,2013-05-05 09:32:00,
2013-05-05 05:37:00,36.0,34.7,30.32,NE,46,1.0,1.0,95,0.00,,,0.00,meteohub,2013-05-05 09:37:00,
2013-05-05 05:42:00,36.1,34.9,30.32,NE,44,1.0,3.0,95,0.00,,,0.00,meteohub,2013-05-05 09:42:00,
2013-05-05 05:47:00,36.5,35.4,30.32,NE,43,0.0,3.0,96,0.00,,,0.00,meteohub,2013-05-05 09:47:00,
2013-05-05 05:52:00,36.7,35.6,30.32,NE,43,0.0,3.0,96,0.00,,,0.00,meteohub,2013-05-05 09:52:00,
2013-05-05 05:57:00,36.9,35.8,30.32,NE,43,0.0,3.0,96,0.00,,,0.00,meteohub,2013-05-05 09:57:00,
2013-05-05 06:02:00,36.9,35.6,30.33,NE,43,0.0,2.0,95,0.00,,,0.00,meteohub,2013-05-05 10:02:00,
2013-05-05 06:07:00,36.9,35.6,30.33,NE,43,0.0,1.0,95,0.00,,,0.00,meteohub,2013-05-05 10:07:00,
2013-05-05 06:12:00,36.9,35.6,30.33,NE,43,0.0,1.0,95,0.00,,,0.00,meteohub,2013-05-05 10:12:00,
2013-05-05 06:17:00,36.9,35.6,30.33,NE,43,1.0,1.0,95,0.00,,,0.00,meteohub,2013-05-05 10:17:00,
2013-05-05 06:22:00,37.0,35.8,30.33,NE,43,0.0,3.0,95,0.00,,,0.00,meteohub,2013-05-05 10:22:00,
2013-05-05 06:27:00,37.4,36.3,30.33,NE,43,1.0,3.0,96,0.00,,,0.00,meteohub,2013-05-05 10:27:00,
2013-05-05 06:32:00,37.8,36.7,30.33,NE,43,0.0,3.0,96,0.00,,,0.00,meteohub,2013-05-05 10:32:00,
2013-05-05 06:37:00,38.1,37.0,30.33,NE,39,3.0,3.0,96,0.00,,,0.00,meteohub,2013-05-05 10:37:00,
2013-05-05 06:42:00,38.5,37.4,30.34,NE,36,0.0,4.0,96,0.00,,,0.00,meteohub,2013-05-05 10:42:00,
2013-05-05 06:47:00,38.7,37.4,30.34,NE,36,2.0,4.0,95,0.00,,,0.00,meteohub,2013-05-05 10:47:00,
2013-05-05 06:52:00,38.8,37.6,30.34,NE,36,0.0,4.0,95,0.00,,,0.00,meteohub,2013-05-05 10:52:00,
2013-05-05 06:57:00,39.4,38.1,30.33,NE,36,1.0,4.0,95,0.00,,,0.00,meteohub,2013-05-05 10:57:00,
2013-05-05 07:02:00,39.7,38.5,30.34,NNE,18,2.0,5.0,95,0.00,,,0.00,meteohub,2013-05-05 11:02:00,
2013-05-05 07:07:00,39.9,38.3,30.34,North,5,3.0,6.0,94,0.00,,,0.00,meteohub,2013-05-05 11:07:00,
2013-05-05 07:12:00,40.5,38.8,30.34,North,9,2.0,8.0,94,0.00,,,0.00,meteohub,2013-05-05 11:12:00,
2013-05-05 07:17:00,40.6,38.8,30.34,North,0,2.0,8.0,93,0.00,,,0.00,meteohub,2013-05-05 11:17:00,
2013-05-05 07:22:00,41.2,39.4,30.34,North,5,3.0,6.0,93,0.00,,,0.00,meteohub,2013-05-05 11:22:00,
2013-05-05 07:27:00,41.5,39.4,30.34,North,9,3.0,6.0,92,0.00,,,0.00,meteohub,2013-05-05 11:27:00,
2013-05-05 07:32:00,42.1,39.9,30.34,North,11,2.0,6.0,92,0.00,,,0.00,meteohub,2013-05-05 11:32:00,
2013-05-05 07:37:00,42.4,39.9,30.34,North,5,4.0,7.0,91,0.00,,,0.00,meteohub,2013-05-05 11:37:00,
2013-05-05 07:42:00,42.8,40.1,30.34,NNE,32,3.0,7.0,90,0.00,,,0.00,meteohub,2013-05-05 11:42:00,
2013-05-05 07:47:00,43.2,40.5,30.34,North,11,4.0,7.0,90,0.00,,,0.00,meteohub,2013-05-05 11:47:00,
2013-05-05 07:52:00,43.5,40.5,30.34,NNE,17,4.0,9.0,89,0.00,,,0.00,meteohub,2013-05-05 11:52:00,
2013-05-05 07:57:00,44.1,40.8,30.34,North,5,5.0,9.0,88,0.00,,,0.00,meteohub,2013-05-05 11:57:00,
2013-05-05 08:02:00,44.4,41.2,30.34,North,5,3.0,9.0,88,0.00,,,0.00,meteohub,2013-05-05 12:02:00,
2013-05-05 08:07:00,45.0,41.0,30.34,NNW,348,2.0,6.0,86,0.00,,,0.00,meteohub,2013-05-05 12:07:00,
2013-05-05 08:12:00,45.3,41.0,30.34,NNE,12,2.0,10.0,85,0.00,,,0.00,meteohub,2013-05-05 12:12:00,
2013-05-05 08:17:00,45.7,41.2,30.34,NNW,348,3.0,11.0,84,0.00,,,0.00,meteohub,2013-05-05 12:17:00,
2013-05-05 08:22:00,46.0,41.5,30.34,NE,36,4.0,11.0,84,0.00,,,0.00,meteohub,2013-05-05 12:22:00,
2013-05-05 08:27:00,46.2,41.0,30.34,NE,44,2.0,11.0,82,0.00,,,0.00,meteohub,2013-05-05 12:27:00,
2013-05-05 08:32:00,46.6,41.4,30.34,NNE,17,0.0,11.0,82,0.00,,,0.00,meteohub,2013-05-05 12:32:00,
2013-05-05 08:37:00,46.9,41.7,30.34,NE,42,5.0,12.0,82,0.00,,,0.00,meteohub,2013-05-05 12:37:00,
2013-05-05 08:42:00,47.1,41.5,30.34,NNE,19,5.0,12.0,81,0.00,,,0.00,meteohub,2013-05-05 12:42:00,
2013-05-05 08:47:00,47.5,41.5,30.34,NNE,25,0.0,12.0,80,0.00,,,0.00,meteohub,2013-05-05 12:47:00,
2013-05-05 08:52:00,47.7,42.1,30.34,NW,325,0.0,9.0,81,0.00,,,0.00,meteohub,2013-05-05 12:52:00,
2013-05-05 08:57:00,48.0,42.1,30.34,North,10,6.0,9.0,80,0.00,,,0.00,meteohub,2013-05-05 12:57:00,
2013-05-05 09:02:00,48.7,42.3,30.34,NNW,348,0.0,9.0,78,0.00,,,0.00,meteohub,2013-05-05 13:02:00,
2013-05-05 09:07:00,49.3,42.1,30.34,NE,39,1.0,7.0,76,0.00,,,0.00,meteohub,2013-05-05 13:07:00,
2013-05-05 09:12:00,49.3,41.7,30.34,NE,43,6.0,10.0,75,0.00,,,0.00,meteohub,2013-05-05 13:12:00,
2013-05-05 09:17:00,49.6,41.7,30.34,North,5,5.0,10.0,74,0.00,,,0.00,meteohub,2013-05-05 13:17:00,
2013-05-05 09:22:00,50.0,41.7,30.34,NNW,347,7.0,10.0,73,0.00,,,0.00,meteohub,2013-05-05 13:22:00,
2013-05-05 09:27:00,50.4,42.1,30.34,East,80,3.0,10.0,73,0.00,,,0.00,meteohub,2013-05-05 13:27:00,
2013-05-05 09:32:00,50.5,41.5,30.33,NE,51,1.0,10.0,71,0.00,,,0.00,meteohub,2013-05-05 13:32:00,
2013-05-05 09:37:00,50.7,43.2,30.33,East,82,3.0,10.0,75,0.00,,,0.00,meteohub,2013-05-05 13:37:00,
2013-05-05 09:42:00,51.1,41.2,30.34,NE,44,2.0,7.0,69,0.00,,,0.00,meteohub,2013-05-05 13:42:00,
2013-05-05 09:47:00,51.3,42.3,30.34,ENE,78,3.0,7.0,71,0.00,,,0.00,meteohub,2013-05-05 13:47:00,
2013-05-05 09:53:00,51.6,43.3,30.34,East,88,2.0,7.0,73,0.00,,,0.00,meteohub,2013-05-05 13:53:00,
2013-05-05 09:58:00,51.6,41.0,30.33,ENE,65,0.0,6.0,67,0.00,,,0.00,meteohub,2013-05-05 13:58:00,
2013-05-05 10:03:00,51.6,41.4,30.34,NE,48,6.0,7.0,68,0.00,,,0.00,meteohub,2013-05-05 14:03:00,
2013-05-05 10:08:00,52.0,42.1,30.34,North,0,2.0,11.0,69,0.00,,,0.00,meteohub,2013-05-05 14:08:00,
2013-05-05 10:13:00,52.5,44.1,30.34,East,100,3.0,11.0,73,0.00,,,0.00,meteohub,2013-05-05 14:13:00,
2013-05-05 10:18:00,52.5,41.2,30.33,North,11,2.0,13.0,65,0.00,,,0.00,meteohub,2013-05-05 14:18:00,
2013-05-05 10:23:00,52.3,42.4,30.33,ENE,76,3.0,13.0,69,0.00,,,0.00,meteohub,2013-05-05 14:23:00,
2013-05-05 10:28:00,52.5,41.5,30.33,NE,50,0.0,13.0,66,0.00,,,0.00,meteohub,2013-05-05 14:28:00,
2013-05-05 10:33:00,52.5,42.3,30.33,North,11,4.0,13.0,68,0.00,,,0.00,meteohub,2013-05-05 14:33:00,
2013-05-05 10:38:00,52.5,41.9,30.33,North,5,4.0,13.0,67,0.00,,,0.00,meteohub,2013-05-05 14:38:00,
2013-05-05 10:43:00,53.2,42.6,30.33,NE,40,6.0,11.0,67,0.00,,,0.00,meteohub,2013-05-05 14:43:00,
2013-05-05 10:48:00,53.8,42.6,30.33,East,82,4.0,11.0,66,0.00,,,0.00,meteohub,2013-05-05 14:48:00,
2013-05-05 10:53:00,54.3,44.4,30.33,NE,52,4.0,11.0,69,0.00,,,0.00,meteohub,2013-05-05 14:53:00,
2013-05-05 10:58:00,54.9,43.3,30.33,ENE,70,5.0,11.0,65,0.00,,,0.00,meteohub,2013-05-05 14:58:00,
2013-05-05 11:03:00,55.0,43.5,30.33,ENE,64,2.0,10.0,65,0.00,,,0.00,meteohub,2013-05-05 15:03:00,
2013-05-05 11:08:00,55.2,41.5,30.33,North,0,3.0,10.0,60,0.00,,,0.00,meteohub,2013-05-05 15:08:00,
2013-05-05 11:13:00,55.2,43.7,30.33,ENE,67,3.0,11.0,65,0.00,,,0.00,meteohub,2013-05-05 15:13:00,
2013-05-05 11:18:00,55.6,45.1,30.32,ENE,70,2.0,11.0,68,0.00,,,0.00,meteohub,2013-05-05 15:18:00,
2013-05-05 11:23:00,55.9,43.9,30.32,North,5,0.0,11.0,64,0.00,,,0.00,meteohub,2013-05-05 15:23:00,
2013-05-05 11:28:00,56.1,42.8,30.32,ENE,61,0.0,7.0,61,0.00,,,0.00,meteohub,2013-05-05 15:28:00,
2013-05-05 11:33:00,55.9,41.9,30.32,NNE,13,4.0,10.0,59,0.00,,,0.00,meteohub,2013-05-05 15:33:00,
2013-05-05 11:38:00,55.9,42.6,30.32,NE,54,3.0,10.0,61,0.00,,,0.00,meteohub,2013-05-05 15:38:00,
2013-05-05 11:43:00,56.3,42.6,30.32,East,82,2.0,10.0,60,0.00,,,0.00,meteohub,2013-05-05 15:43:00,
2013-05-05 11:48:00,56.5,41.4,30.32,NE,50,2.0,7.0,57,0.00,,,0.00,meteohub,2013-05-05 15:48:00,
2013-05-05 11:53:00,56.5,43.7,30.32,ENE,76,4.0,7.0,62,0.00,,,0.00,meteohub,2013-05-05 15:53:00,
2013-05-05 11:58:00,56.1,42.4,30.31,ENE,72,0.0,8.0,60,0.00,,,0.00,meteohub,2013-05-05 15:58:00,
2013-05-05 12:03:00,56.3,43.5,30.31,NNE,27,2.0,8.0,62,0.00,,,0.00,meteohub,2013-05-05 16:03:00,
2013-05-05 12:08:00,56.8,45.7,30.31,ESE,109,3.0,8.0,66,0.00,,,0.00,meteohub,2013-05-05 16:08:00,
2013-05-05 12:13:00,57.4,44.1,30.31,ENE,65,5.0,9.0,61,0.00,,,0.00,meteohub,2013-05-05 16:13:00,
2013-05-05 12:19:00,57.6,44.6,30.31,North,5,4.0,12.0,62,0.00,,,0.00,meteohub,2013-05-05 16:19:00,
2013-05-05 12:24:00,57.9,46.2,30.31,East,96,2.0,12.0,65,0.00,,,0.00,meteohub,2013-05-05 16:24:00,
2013-05-05 12:29:00,58.5,45.1,30.30,ESE,117,1.0,12.0,61,0.00,,,0.00,meteohub,2013-05-05 16:29:00,
2013-05-05 12:34:00,58.3,44.1,30.30,North,9,6.0,11.0,59,0.00,,,0.00,meteohub,2013-05-05 16:34:00,
2013-05-05 12:39:00,58.3,45.0,30.30,NNE,19,5.0,12.0,61,0.00,,,0.00,meteohub,2013-05-05 16:39:00,
2013-05-05 12:44:00,58.5,43.7,30.30,North,355,2.0,15.0,58,0.00,,,0.00,meteohub,2013-05-05 16:44:00,
2013-05-05 12:49:00,58.6,43.5,30.30,East,90,1.0,15.0,57,0.00,,,0.00,meteohub,2013-05-05 16:49:00,
2013-05-05 12:54:00,58.8,45.9,30.30,East,98,3.0,15.0,62,0.00,,,0.00,meteohub,2013-05-05 16:54:00,
2013-05-05 12:59:00,58.8,44.6,30.30,NNE,26,2.0,11.0,59,0.00,,,0.00,meteohub,2013-05-05 16:59:00,
2013-05-05 13:04:00,59.0,44.8,30.30,NNE,31,2.0,11.0,59,0.00,,,0.00,meteohub,2013-05-05 17:04:00,
2013-05-05 13:09:00,59.4,45.5,30.30,NNE,30,5.0,11.0,60,0.00,,,0.00,meteohub,2013-05-05 17:09:00,
2013-05-05 13:14:00,59.5,46.6,30.29,NE,37,4.0,10.0,62,0.00,,,0.00,meteohub,2013-05-05 17:14:00,
2013-05-05 13:19:00,59.9,43.2,30.29,ENE,77,1.0,10.0,54,0.00,,,0.00,meteohub,2013-05-05 17:19:00,
2013-05-05 13:24:00,60.1,44.8,30.29,ENE,71,9.0,10.0,57,0.00,,,0.00,meteohub,2013-05-05 17:24:00,
2013-05-05 13:29:00,60.3,46.4,30.29,ENE,61,2.0,10.0,60,0.00,,,0.00,meteohub,2013-05-05 17:29:00,
2013-05-05 13:34:00,60.3,45.5,30.29,SE,128,2.0,10.0,58,0.00,,,0.00,meteohub,2013-05-05 17:34:00,
2013-05-05 13:39:00,60.4,44.2,30.29,NNE,31,2.0,10.0,55,0.00,,,0.00,meteohub,2013-05-05 17:39:00,
2013-05-05 13:44:00,60.4,44.2,30.29,East,83,5.0,10.0,55,0.00,,,0.00,meteohub,2013-05-05 17:44:00,
2013-05-05 13:49:00,60.6,45.7,30.29,NNW,332,2.0,9.0,58,0.00,,,0.00,meteohub,2013-05-05 17:49:00,
2013-05-05 13:54:00,61.0,44.8,30.29,NNE,25,2.0,9.0,55,0.00,,,0.00,meteohub,2013-05-05 17:54:00,
2013-05-05 13:59:00,61.2,44.4,30.29,North,0,6.0,9.0,54,0.00,,,0.00,meteohub,2013-05-05 17:59:00,
2013-05-05 14:04:00,61.0,45.1,30.28,ESE,120,1.0,6.0,56,0.00,,,0.00,meteohub,2013-05-05 18:04:00,
2013-05-05 14:09:00,61.0,44.2,30.28,ENE,59,4.0,7.0,54,0.00,,,0.00,meteohub,2013-05-05 18:09:00,
2013-05-05 14:14:00,61.2,43.9,30.28,ENE,60,6.0,7.0,53,0.00,,,0.00,meteohub,2013-05-05 18:14:00,
2013-05-05 14:19:00,61.2,43.9,30.28,ENE,76,3.0,7.0,53,0.00,,,0.00,meteohub,2013-05-05 18:19:00,
2013-05-05 14:24:00,61.3,43.5,30.28,NE,52,1.0,9.0,52,0.00,,,0.00,meteohub,2013-05-05 18:24:00,
2013-05-05 14:29:00,61.3,43.5,30.28,NNE,25,0.0,10.0,52,0.00,,,0.00,meteohub,2013-05-05 18:29:00,
2013-05-05 14:34:00,61.5,44.2,30.28,ENE,76,5.0,10.0,53,0.00,,,0.00,meteohub,2013-05-05 18:34:00,
2013-05-05 14:39:00,61.7,42.8,30.28,NW,323,3.0,10.0,50,0.00,,,0.00,meteohub,2013-05-05 18:39:00,
2013-05-05 14:44:00,61.7,45.0,30.28,NW,326,0.0,7.0,54,0.00,,,0.00,meteohub,2013-05-05 18:44:00,
2013-05-05 14:49:00,61.7,42.3,30.27,North,5,2.0,10.0,49,0.00,,,0.00,meteohub,2013-05-05 18:49:00,
2013-05-05 14:54:00,61.7,42.3,30.27,North,355,4.0,10.0,49,0.00,,,0.00,meteohub,2013-05-05 18:54:00,
2013-05-05 14:59:00,61.5,42.6,30.27,ENE,60,0.0,10.0,50,0.00,,,0.00,meteohub,2013-05-05 18:59:00,
2013-05-05 15:04:00,61.5,43.7,30.26,NE,37,2.0,10.0,52,0.00,,,0.00,meteohub,2013-05-05 19:04:00,
2013-05-05 15:09:00,61.7,42.8,30.27,ENE,69,4.0,9.0,50,0.00,,,0.00,meteohub,2013-05-05 19:09:00,
2013-05-05 15:14:00,62.2,43.3,30.27,ESE,111,2.0,7.0,50,0.00,,,0.00,meteohub,2013-05-05 19:14:00,
2013-05-05 15:19:00,62.4,43.0,30.26,East,98,0.0,9.0,49,0.00,,,0.00,meteohub,2013-05-05 19:19:00,
2013-05-05 15:25:00,62.6,42.1,30.26,NNE,14,5.0,9.0,47,0.00,,,0.00,meteohub,2013-05-05 19:25:00,
2013-05-05 15:30:00,62.4,41.4,30.26,NE,42,1.0,9.0,46,0.00,,,0.00,meteohub,2013-05-05 19:30:00,
2013-05-05 15:35:00,62.2,42.3,30.26,NNE,19,0.0,7.0,48,0.00,,,0.00,meteohub,2013-05-05 19:35:00,
2013-05-05 15:40:00,62.2,42.8,30.26,SE,132,0.0,7.0,49,0.00,,,0.00,meteohub,2013-05-05 19:40:00,
2013-05-05 15:45:00,62.2,43.3,30.26,East,86,1.0,7.0,50,0.00,,,0.00,meteohub,2013-05-05 19:45:00,
2013-05-05 15:50:00,62.4,43.5,30.26,ENE,78,0.0,6.0,50,0.00,,,0.00,meteohub,2013-05-05 19:50:00,
2013-05-05 15:55:00,62.4,43.5,30.26,SSE,165,0.0,6.0,50,0.00,,,0.00,meteohub,2013-05-05 19:55:00,
2013-05-05 16:00:00,62.4,44.1,30.25,SSE,155,2.0,5.0,51,0.00,,,0.00,meteohub,2013-05-05 20:00:00,
2013-05-05 16:05:00,62.4,42.4,30.25,ENE,77,1.0,10.0,48,0.00,,,0.00,meteohub,2013-05-05 20:05:00,
2013-05-05 16:10:00,62.4,43.0,30.25,NNE,12,0.0,10.0,49,0.00,,,0.00,meteohub,2013-05-05 20:10:00,
2013-05-05 16:15:00,62.4,41.9,30.25,SE,132,3.0,10.0,47,0.00,,,0.00,meteohub,2013-05-05 20:15:00,
2013-05-05 16:20:00,62.4,43.5,30.25,SE,127,1.0,6.0,50,0.00,,,0.00,meteohub,2013-05-05 20:20:00,
2013-05-05 16:25:00,62.6,42.6,30.25,SE,126,0.0,7.0,48,0.00,,,0.00,meteohub,2013-05-05 20:25:00,
2013-05-05 16:30:00,62.8,43.3,30.25,ENE,61,0.0,9.0,49,0.00,,,0.00,meteohub,2013-05-05 20:30:00,
2013-05-05 16:35:00,63.0,43.0,30.25,NE,53,7.0,9.0,48,0.00,,,0.00,meteohub,2013-05-05 20:35:00,
2013-05-05 16:40:00,62.6,41.0,30.25,NNE,26,0.0,9.0,45,0.00,,,0.00,meteohub,2013-05-05 20:40:00,
2013-05-05 16:45:00,62.2,40.6,30.25,NNE,18,9.0,9.0,45,0.00,,,0.00,meteohub,2013-05-05 20:45:00,
2013-05-05 16:50:00,62.1,40.5,30.25,NE,34,0.0,9.0,45,0.00,,,0.00,meteohub,2013-05-05 20:50:00,
2013-05-05 16:55:00,62.1,43.2,30.25,ESE,119,0.0,11.0,50,0.00,,,0.00,meteohub,2013-05-05 20:55:00,
2013-05-05 17:00:00,62.1,41.5,30.25,East,92,0.0,10.0,47,0.00,,,0.00,meteohub,2013-05-05 21:00:00,
2013-05-05 17:05:00,62.1,40.5,30.25,North,5,2.0,10.0,45,0.00,,,0.00,meteohub,2013-05-05 21:05:00,
2013-05-05 17:10:00,61.9,40.8,30.25,ENE,64,0.0,10.0,46,0.00,,,0.00,meteohub,2013-05-05 21:10:00,
2013-05-05 17:15:00,61.9,40.3,30.24,North,355,3.0,7.0,45,0.00,,,0.00,meteohub,2013-05-05 21:15:00,
2013-05-05 17:20:00,61.9,42.4,30.25,ENE,65,0.0,7.0,49,0.00,,,0.00,meteohub,2013-05-05 21:20:00,
2013-05-05 17:25:00,62.1,42.6,30.25,ENE,59,0.0,6.0,49,0.00,,,0.00,meteohub,2013-05-05 21:25:00,
2013-05-05 17:30:00,62.1,42.6,30.25,ESE,119,0.0,6.0,49,0.00,,,0.00,meteohub,2013-05-05 21:30:00,
2013-05-05 17:35:00,62.2,42.3,30.25,ESE,123,0.0,5.0,48,0.00,,,0.00,meteohub,2013-05-05 21:35:00,
2013-05-05 17:40:00,62.1,41.0,30.24,NNE,20,5.0,5.0,46,0.00,,,0.00,meteohub,2013-05-05 21:40:00,
2013-05-05 17:45:00,61.9,42.4,30.25,East,101,0.0,5.0,49,0.00,,,0.00,meteohub,2013-05-05 21:45:00,
2013-05-05 17:50:00,61.9,41.9,30.25,ESE,123,0.0,6.0,48,0.00,,,0.00,meteohub,2013-05-05 21:50:00,
2013-05-05 17:55:00,61.9,40.8,30.25,ENE,61,5.0,6.0,46,0.00,,,0.00,meteohub,2013-05-05 21:55:00,
2013-05-05 18:00:00,61.5,40.5,30.25,NE,49,1.0,6.0,46,0.00,,,0.00,meteohub,2013-05-05 22:00:00,
2013-05-05 18:05:00,61.3,40.5,30.25,NE,40,0.0,9.0,46,0.00,,,0.00,meteohub,2013-05-05 22:05:00,
2013-05-05 18:10:00,61.2,41.4,30.25,ESE,105,1.0,9.0,48,0.00,,,0.00,meteohub,2013-05-05 22:10:00,
2013-05-05 18:15:00,61.2,42.4,30.25,ESE,105,0.0,9.0,50,0.00,,,0.00,meteohub,2013-05-05 22:15:00,
2013-05-05 18:20:00,61.0,41.2,30.25,East,96,2.0,5.0,48,0.00,,,0.00,meteohub,2013-05-05 22:20:00,
2013-05-05 18:25:00,60.8,41.5,30.25,NE,51,0.0,6.0,49,0.00,,,0.00,meteohub,2013-05-05 22:25:00,
2013-05-05 18:30:00,60.6,41.4,30.25,East,92,0.0,6.0,49,0.00,,,0.00,meteohub,2013-05-05 22:30:00,
2013-05-05 18:35:00,60.4,41.7,30.25,ESE,107,0.0,6.0,50,0.00,,,0.00,meteohub,2013-05-05 22:35:00,
2013-05-05 18:40:00,60.1,40.8,30.25,East,93,0.0,5.0,49,0.00,,,0.00,meteohub,2013-05-05 22:40:00,
2013-05-05 18:45:00,59.5,41.4,30.25,ENE,78,0.0,5.0,51,0.00,,,0.00,meteohub,2013-05-05 22:45:00,
2013-05-05 18:51:00,59.2,40.6,30.25,SE,129,0.0,5.0,50,0.00,,,0.00,meteohub,2013-05-05 22:51:00,
2013-05-05 18:56:00,58.8,40.8,30.25,ESE,103,1.0,5.0,51,0.00,,,0.00,meteohub,2013-05-05 22:56:00,
2013-05-05 19:01:00,58.6,41.0,30.25,ENE,74,0.0,4.0,52,0.00,,,0.00,meteohub,2013-05-05 23:01:00,
2013-05-05 19:06:00,58.3,40.8,30.25,ENE,78,0.0,6.0,52,0.00,,,0.00,meteohub,2013-05-05 23:06:00,
2013-05-05 19:11:00,57.9,40.8,30.26,East,100,0.0,6.0,53,0.00,,,0.00,meteohub,2013-05-05 23:11:00,
2013-05-05 19:16:00,57.7,40.6,30.26,ESE,120,7.0,7.0,53,0.00,,,0.00,meteohub,2013-05-05 23:16:00,
2013-05-05 19:21:00,57.4,40.8,30.26,SE,124,2.0,10.0,54,0.00,,,0.00,meteohub,2013-05-05 23:21:00,
2013-05-05 19:26:00,57.0,41.9,30.26,East,82,5.0,10.0,57,0.00,,,0.00,meteohub,2013-05-05 23:26:00,
2013-05-05 19:31:00,56.7,41.2,30.26,ESE,110,0.0,10.0,56,0.00,,,0.00,meteohub,2013-05-05 23:31:00,
2013-05-05 19:36:00,56.3,41.2,30.26,ESE,111,0.0,7.0,57,0.00,,,0.00,meteohub,2013-05-05 23:36:00,
2013-05-05 19:41:00,55.9,41.0,30.26,ESE,111,1.0,7.0,57,0.00,,,0.00,meteohub,2013-05-05 23:41:00,
2013-05-05 19:46:00,55.6,41.0,30.26,East,90,1.0,4.0,58,0.00,,,0.00,meteohub,2013-05-05 23:46:00,
2013-05-05 19:51:00,55.0,41.4,30.27,ENE,61,0.0,4.0,60,0.00,,,0.00,meteohub,2013-05-05 23:51:00,
2013-05-05 19:56:00,54.7,41.5,30.27,ENE,69,0.0,5.0,61,0.00,,,0.00,meteohub,2013-05-05 23:56:00,
2013-05-05 20:01:00,54.1,41.4,30.27,ENE,70,0.0,5.0,62,0.00,,,0.00,meteohub,2013-05-06 00:01:00,
2013-05-05 20:06:00,54.0,41.2,30.27,ENE,71,0.0,5.0,62,0.00,,,0.00,meteohub,2013-05-06 00:06:00,
2013-05-05 20:11:00,53.6,41.4,30.27,ENE,71,3.0,3.0,63,0.00,,,0.00,meteohub,2013-05-06 00:11:00,
2013-05-05 20:16:00,53.2,41.0,30.27,ESE,113,0.0,4.0,63,0.00,,,0.00,meteohub,2013-05-06 00:16:00,
2013-05-05 20:21:00,52.9,41.4,30.27,ESE,113,1.0,5.0,65,0.00,,,0.00,meteohub,2013-05-06 00:21:00,
2013-05-05 20:26:00,52.5,41.5,30.28,ESE,114,1.0,5.0,66,0.00,,,0.00,meteohub,2013-05-06 00:26:00,
2013-05-05 20:31:00,52.2,41.5,30.28,ESE,112,0.0,5.0,67,0.00,,,0.00,meteohub,2013-05-06 00:31:00,
2013-05-05 20:36:00,52.0,41.4,30.28,ESE,111,0.0,5.0,67,0.00,,,0.00,meteohub,2013-05-06 00:36:00,
2013-05-05 20:41:00,51.6,41.4,30.28,ESE,112,0.0,5.0,68,0.00,,,0.00,meteohub,2013-05-06 00:41:00,
2013-05-05 20:46:00,51.4,41.2,30.28,ESE,112,2.0,2.0,68,0.00,,,0.00,meteohub,2013-05-06 00:46:00,
2013-05-05 20:51:00,51.3,41.4,30.28,ESE,113,1.0,3.0,69,0.00,,,0.00,meteohub,2013-05-06 00:51:00,
2013-05-05 20:56:00,50.9,41.5,30.28,ESE,112,1.0,3.0,70,0.00,,,0.00,meteohub,2013-05-06 00:56:00,
2013-05-05 21:01:00,50.5,41.2,30.28,ESE,112,0.0,4.0,70,0.00,,,0.00,meteohub,2013-05-06 01:01:00,
2013-05-05 21:06:00,50.4,41.0,30.28,ESE,111,0.0,4.0,70,0.00,,,0.00,meteohub,2013-05-06 01:06:00,
2013-05-05 21:11:00,50.2,41.2,30.29,ESE,112,0.0,4.0,71,0.00,,,0.00,meteohub,2013-05-06 01:11:00,
2013-05-05 21:16:00,49.8,41.2,30.29,ESE,111,0.0,2.0,72,0.00,,,0.00,meteohub,2013-05-06 01:16:00,
2013-05-05 21:21:00,49.5,40.8,30.29,ESE,112,0.0,2.0,72,0.00,,,0.00,meteohub,2013-05-06 01:21:00,
2013-05-05 21:26:00,49.3,41.4,30.29,ESE,112,0.0,2.0,74,0.00,,,0.00,meteohub,2013-05-06 01:26:00,
2013-05-05 21:31:00,48.9,41.0,30.29,ESE,112,0.0,3.0,74,0.00,,,0.00,meteohub,2013-05-06 01:31:00,
2013-05-05 21:36:00,48.7,40.8,30.29,ESE,112,0.0,3.0,74,0.00,,,0.00,meteohub,2013-05-06 01:36:00,
2013-05-05 21:41:00,48.4,40.5,30.29,ESE,112,2.0,3.0,74,0.00,,,0.00,meteohub,2013-05-06 01:41:00,
2013-05-05 21:46:00,48.4,40.8,30.29,ESE,115,0.0,5.0,75,0.00,,,0.00,meteohub,2013-05-06 01:46:00,
2013-05-05 21:51:00,48.0,40.5,30.29,ESE,115,0.0,5.0,75,0.00,,,0.00,meteohub,2013-05-06 01:51:00,
2013-05-05 21:56:00,48.0,40.5,30.29,ESE,115,0.0,5.0,75,0.00,,,0.00,meteohub,2013-05-06 01:56:00,
2013-05-05 22:01:00,47.8,40.6,30.29,ESE,115,1.0,3.0,76,0.00,,,0.00,meteohub,2013-05-06 02:01:00,
2013-05-05 22:06:00,47.7,40.5,30.29,ESE,115,0.0,3.0,76,0.00,,,0.00,meteohub,2013-05-06 02:06:00,
2013-05-05 22:11:00,47.5,40.3,30.29,ESE,115,0.0,3.0,76,0.00,,,0.00,meteohub,2013-05-06 02:11:00,
2013-05-05 22:17:00,47.1,39.9,30.29,ESE,115,0.0,1.0,76,0.00,,,0.00,meteohub,2013-05-06 02:17:00,
2013-05-05 22:22:00,46.9,39.7,30.29,ESE,115,0.0,0.0,76,0.00,,,0.00,meteohub,2013-05-06 02:22:00,
2013-05-05 22:27:00,46.8,39.9,30.29,ESE,115,0.0,0.0,77,0.00,,,0.00,meteohub,2013-05-06 02:27:00,
2013-05-05 22:32:00,46.4,39.9,30.30,ESE,115,0.0,0.0,78,0.00,,,0.00,meteohub,2013-05-06 02:32:00,
2013-05-05 22:37:00,46.0,40.3,30.30,ESE,115,0.0,0.0,80,0.00,,,0.00,meteohub,2013-05-06 02:37:00,
2013-05-05 22:42:00,45.9,40.1,30.30,ESE,115,0.0,0.0,80,0.00,,,0.00,meteohub,2013-05-06 02:42:00,
2013-05-05 22:47:00,45.7,39.9,30.29,ESE,115,0.0,0.0,80,0.00,,,0.00,meteohub,2013-05-06 02:47:00,
2013-05-05 22:52:00,45.3,39.9,30.29,ESE,115,0.0,0.0,81,0.00,,,0.00,meteohub,2013-05-06 02:52:00,
2013-05-05 22:57:00,45.1,39.7,30.29,ESE,115,2.0,0.0,81,0.00,,,0.00,meteohub,2013-05-06 02:57:00,
2013-05-05 23:02:00,45.0,39.7,30.29,ESE,115,0.0,2.0,82,0.00,,,0.00,meteohub,2013-05-06 03:02:00,
2013-05-05 23:07:00,44.6,39.4,30.29,ESE,115,0.0,2.0,82,0.00,,,0.00,meteohub,2013-05-06 03:07:00,
2013-05-05 23:12:00,44.4,39.2,30.29,ESE,115,0.0,2.0,82,0.00,,,0.00,meteohub,2013-05-06 03:12:00,
2013-05-05 23:17:00,44.2,39.0,30.29,ESE,115,0.0,0.0,82,0.00,,,0.00,meteohub,2013-05-06 03:17:00,
2013-05-05 23:22:00,44.1,39.2,30.29,ESE,115,0.0,0.0,83,0.00,,,0.00,meteohub,2013-05-06 03:22:00,
2013-05-05 23:27:00,43.9,39.0,30.29,ESE,115,0.0,0.0,83,0.00,,,0.00,meteohub,2013-05-06 03:27:00,
2013-05-05 23:32:00,43.7,38.8,30.29,ESE,115,0.0,0.0,83,0.00,,,0.00,meteohub,2013-05-06 03:32:00,
2013-05-05 23:37:00,43.5,39.0,30.29,ESE,115,0.0,0.0,84,0.00,,,0.00,meteohub,2013-05-06 03:37:00,
2013-05-05 23:42:00,43.3,38.8,30.29,ESE,115,0.0,0.0,84,0.00,,,0.00,meteohub,2013-05-06 03:42:00,
2013-05-05 23:47:00,43.2,39.0,30.29,ESE,115,0.0,0.0,85,0.00,,,0.00,meteohub,2013-05-06 03:47:00,
2013-05-05 23:52:00,43.0,38.8,30.29,ESE,115,0.0,0.0,85,0.00,,,0.00,meteohub,2013-05-06 03:52:00,
2013-05-05 23:57:00,42.6,38.5,30.28,ESE,115,0.0,0.0,85,0.00,,,0.00,meteohub,2013-05-06 03:57:00,